sensor_id;sensor_type;location;lat;lon;timestamp;P1;durP1;ratioP1;P2;durP2;ratioP2
10509;SDS011;5303;53.266;10.410;2023-10-19T00:01:47;12.40;;;7.83;;
10509;SDS011;5303;53.266;10.410;2023-10-19T00:04:12;11.87;;;8.27;;
10509;SDS011;5303;53.266;10.410;2023-10-19T00:06:37;11.40;;;8.30;;
10509;SDS011;5303;53.266;10.410;2023-10-19T00:09:05;11.40;;;8.10;;
10509;SDS011;5303;53.266;10.410;2023-10-19T00:11:36;11.20;;;8.40;;
10509;SDS011;5303;53.266;10.410;2023-10-19T00:14:01;11.50;;;8.80;;
10509;SDS011;5303;53.266;10.410;2023-10-19T00:16:28;11.30;;;8.23;;
10509;SDS011;5303;53.266;10.410;2023-10-19T00:19:00;13.27;;;8.47;;
10509;SDS011;5303;53.266;10.410;2023-10-19T00:21:25;12.40;;;8.57;;
10509;SDS011;5303;53.266;10.410;2023-10-19T00:23:56;9.40;;;7.70;;
10509;SDS011;5303;53.266;10.410;2023-10-19T00:26:25;13.57;;;9.23;;
10509;SDS011;5303;53.266;10.410;2023-10-19T00:28:52;11.70;;;8.27;;
10509;SDS011;5303;53.266;10.410;2023-10-19T00:31:20;12.47;;;8.57;;
10509;SDS011;5303;53.266;10.410;2023-10-19T00:33:46;13.13;;;8.90;;
10509;SDS011;5303;53.266;10.410;2023-10-19T00:36:11;12.20;;;8.83;;
10509;SDS011;5303;53.266;10.410;2023-10-19T00:38:40;13.47;;;9.40;;
10509;SDS011;5303;53.266;10.410;2023-10-19T00:41:16;11.50;;;8.50;;
10509;SDS011;5303;53.266;10.410;2023-10-19T00:43:55;11.43;;;8.20;;
10509;SDS011;5303;53.266;10.410;2023-10-19T00:46:51;10.80;;;8.20;;
10509;SDS011;5303;53.266;10.410;2023-10-19T00:49:27;15.80;;;9.60;;
10509;SDS011;5303;53.266;10.410;2023-10-19T00:51:54;9.83;;;8.50;;
10509;SDS011;5303;53.266;10.410;2023-10-19T00:54:34;11.63;;;8.40;;
10509;SDS011;5303;53.266;10.410;2023-10-19T00:57:02;12.17;;;9.17;;
10509;SDS011;5303;53.266;10.410;2023-10-19T00:59:31;12.43;;;8.97;;
10509;SDS011;5303;53.266;10.410;2023-10-19T01:02:00;11.53;;;8.83;;
10509;SDS011;5303;53.266;10.410;2023-10-19T01:04:45;12.20;;;8.53;;
10509;SDS011;5303;53.266;10.410;2023-10-19T01:07:33;9.97;;;8.47;;
10509;SDS011;5303;53.266;10.410;2023-10-19T01:10:03;10.70;;;8.20;;
10509;SDS011;5303;53.266;10.410;2023-10-19T01:12:30;10.60;;;8.70;;
10509;SDS011;5303;53.266;10.410;2023-10-19T01:17:49;15.13;;;8.37;;
10509;SDS011;5303;53.266;10.410;2023-10-19T01:20:22;14.07;;;8.67;;
10509;SDS011;5303;53.266;10.410;2023-10-19T01:22:58;10.70;;;8.40;;
10509;SDS011;5303;53.266;10.410;2023-10-19T01:25:50;11.70;;;8.60;;
10509;SDS011;5303;53.266;10.410;2023-10-19T01:28:23;11.63;;;8.90;;
10509;SDS011;5303;53.266;10.410;2023-10-19T01:31:08;12.93;;;9.30;;
10509;SDS011;5303;53.266;10.410;2023-10-19T01:33:53;11.63;;;8.90;;
10509;SDS011;5303;53.266;10.410;2023-10-19T01:36:25;11.73;;;9.03;;
10509;SDS011;5303;53.266;10.410;2023-10-19T01:38:54;11.50;;;8.97;;
10509;SDS011;5303;53.266;10.410;2023-10-19T01:41:21;12.80;;;9.07;;
10509;SDS011;5303;53.266;10.410;2023-10-19T01:43:50;12.27;;;8.93;;
10509;SDS011;5303;53.266;10.410;2023-10-19T01:46:19;10.83;;;8.77;;
10509;SDS011;5303;53.266;10.410;2023-10-19T01:48:56;11.80;;;9.47;;
10509;SDS011;5303;53.266;10.410;2023-10-19T01:51:22;10.60;;;8.43;;
10509;SDS011;5303;53.266;10.410;2023-10-19T01:53:53;13.27;;;8.77;;
10509;SDS011;5303;53.266;10.410;2023-10-19T01:56:39;13.47;;;8.97;;
10509;SDS011;5303;53.266;10.410;2023-10-19T01:59:08;14.53;;;9.53;;
10509;SDS011;5303;53.266;10.410;2023-10-19T02:01:34;11.20;;;8.73;;
10509;SDS011;5303;53.266;10.410;2023-10-19T02:04:03;12.93;;;9.23;;
10509;SDS011;5303;53.266;10.410;2023-10-19T02:06:30;14.40;;;9.27;;
10509;SDS011;5303;53.266;10.410;2023-10-19T02:11:41;12.97;;;8.57;;
10509;SDS011;5303;53.266;10.410;2023-10-19T02:14:07;13.13;;;9.13;;
10509;SDS011;5303;53.266;10.410;2023-10-19T02:16:39;14.13;;;8.97;;
10509;SDS011;5303;53.266;10.410;2023-10-19T02:19:08;14.17;;;9.17;;
10509;SDS011;5303;53.266;10.410;2023-10-19T02:21:34;12.93;;;9.50;;
10509;SDS011;5303;53.266;10.410;2023-10-19T02:24:04;12.30;;;9.13;;
10509;SDS011;5303;53.266;10.410;2023-10-19T02:26:32;13.00;;;9.83;;
10509;SDS011;5303;53.266;10.410;2023-10-19T02:28:58;13.40;;;9.30;;
10509;SDS011;5303;53.266;10.410;2023-10-19T02:31:23;12.87;;;9.70;;
10509;SDS011;5303;53.266;10.410;2023-10-19T02:33:50;13.13;;;9.80;;
10509;SDS011;5303;53.266;10.410;2023-10-19T02:36:28;13.43;;;9.40;;
10509;SDS011;5303;53.266;10.410;2023-10-19T02:38:54;16.17;;;9.53;;
10509;SDS011;5303;53.266;10.410;2023-10-19T02:41:23;13.50;;;9.43;;
10509;SDS011;5303;53.266;10.410;2023-10-19T02:43:51;14.77;;;9.73;;
10509;SDS011;5303;53.266;10.410;2023-10-19T02:46:26;14.03;;;10.43;;
10509;SDS011;5303;53.266;10.410;2023-10-19T02:48:59;15.70;;;10.30;;
10509;SDS011;5303;53.266;10.410;2023-10-19T02:51:25;12.10;;;10.07;;
10509;SDS011;5303;53.266;10.410;2023-10-19T02:53:51;15.90;;;10.67;;
10509;SDS011;5303;53.266;10.410;2023-10-19T02:56:16;14.57;;;10.83;;
10509;SDS011;5303;53.266;10.410;2023-10-19T02:58:42;14.33;;;10.53;;
10509;SDS011;5303;53.266;10.410;2023-10-19T03:01:12;14.67;;;10.33;;
10509;SDS011;5303;53.266;10.410;2023-10-19T03:03:42;17.57;;;10.93;;
10509;SDS011;5303;53.266;10.410;2023-10-19T03:06:08;15.30;;;10.60;;
10509;SDS011;5303;53.266;10.410;2023-10-19T03:08:34;15.93;;;10.70;;
10509;SDS011;5303;53.266;10.410;2023-10-19T03:11:00;14.70;;;10.60;;
10509;SDS011;5303;53.266;10.410;2023-10-19T03:13:29;15.13;;;11.37;;
10509;SDS011;5303;53.266;10.410;2023-10-19T03:15:56;18.67;;;11.27;;
10509;SDS011;5303;53.266;10.410;2023-10-19T03:18:22;17.90;;;11.23;;
10509;SDS011;5303;53.266;10.410;2023-10-19T03:20:47;19.07;;;11.17;;
10509;SDS011;5303;53.266;10.410;2023-10-19T03:23:15;13.07;;;10.67;;
10509;SDS011;5303;53.266;10.410;2023-10-19T03:25:41;15.37;;;11.33;;
10509;SDS011;5303;53.266;10.410;2023-10-19T03:28:35;16.37;;;11.43;;
10509;SDS011;5303;53.266;10.410;2023-10-19T03:31:00;15.77;;;12.00;;
10509;SDS011;5303;53.266;10.410;2023-10-19T03:33:25;16.53;;;11.77;;
10509;SDS011;5303;53.266;10.410;2023-10-19T03:35:53;17.67;;;11.70;;
10509;SDS011;5303;53.266;10.410;2023-10-19T03:38:19;15.83;;;11.33;;
10509;SDS011;5303;53.266;10.410;2023-10-19T03:40:47;14.73;;;11.63;;
10509;SDS011;5303;53.266;10.410;2023-10-19T03:43:24;15.37;;;10.77;;
10509;SDS011;5303;53.266;10.410;2023-10-19T03:45:52;16.50;;;11.30;;
10509;SDS011;5303;53.266;10.410;2023-10-19T03:48:19;16.87;;;11.83;;
10509;SDS011;5303;53.266;10.410;2023-10-19T03:50:59;14.40;;;11.60;;
10509;SDS011;5303;53.266;10.410;2023-10-19T03:53:27;17.83;;;11.53;;
10509;SDS011;5303;53.266;10.410;2023-10-19T03:55:52;15.10;;;11.57;;
10509;SDS011;5303;53.266;10.410;2023-10-19T03:58:19;17.30;;;12.23;;
10509;SDS011;5303;53.266;10.410;2023-10-19T04:00:45;16.13;;;12.10;;
10509;SDS011;5303;53.266;10.410;2023-10-19T04:03:14;18.60;;;12.77;;
10509;SDS011;5303;53.266;10.410;2023-10-19T04:05:42;15.00;;;11.73;;
10509;SDS011;5303;53.266;10.410;2023-10-19T04:08:11;14.70;;;11.57;;
10509;SDS011;5303;53.266;10.410;2023-10-19T04:10:41;15.77;;;12.23;;
10509;SDS011;5303;53.266;10.410;2023-10-19T04:13:25;17.07;;;12.27;;
10509;SDS011;5303;53.266;10.410;2023-10-19T04:15:50;17.80;;;12.50;;
10509;SDS011;5303;53.266;10.410;2023-10-19T04:18:18;15.13;;;11.63;;
10509;SDS011;5303;53.266;10.410;2023-10-19T04:20:43;15.90;;;11.63;;
10509;SDS011;5303;53.266;10.410;2023-10-19T04:23:17;18.50;;;12.73;;
10509;SDS011;5303;53.266;10.410;2023-10-19T04:25:43;18.07;;;12.47;;
10509;SDS011;5303;53.266;10.410;2023-10-19T04:28:10;17.57;;;12.50;;
10509;SDS011;5303;53.266;10.410;2023-10-19T04:30:37;16.13;;;12.23;;
10509;SDS011;5303;53.266;10.410;2023-10-19T04:33:03;15.37;;;12.13;;
10509;SDS011;5303;53.266;10.410;2023-10-19T04:35:32;18.40;;;12.20;;
10509;SDS011;5303;53.266;10.410;2023-10-19T04:37:59;20.97;;;12.70;;
10509;SDS011;5303;53.266;10.410;2023-10-19T04:40:26;17.97;;;12.03;;
10509;SDS011;5303;53.266;10.410;2023-10-19T04:42:52;20.30;;;13.10;;
10509;SDS011;5303;53.266;10.410;2023-10-19T04:45:18;17.77;;;12.20;;
10509;SDS011;5303;53.266;10.410;2023-10-19T04:47:43;17.17;;;12.17;;
10509;SDS011;5303;53.266;10.410;2023-10-19T04:50:09;18.93;;;12.80;;
10509;SDS011;5303;53.266;10.410;2023-10-19T04:52:36;20.20;;;13.97;;
10509;SDS011;5303;53.266;10.410;2023-10-19T04:55:02;15.83;;;12.80;;
10509;SDS011;5303;53.266;10.410;2023-10-19T04:57:27;20.30;;;12.83;;
10509;SDS011;5303;53.266;10.410;2023-10-19T04:59:53;19.57;;;13.40;;
10509;SDS011;5303;53.266;10.410;2023-10-19T05:02:18;18.90;;;12.57;;
10509;SDS011;5303;53.266;10.410;2023-10-19T05:04:43;17.53;;;13.17;;
10509;SDS011;5303;53.266;10.410;2023-10-19T05:07:10;19.63;;;13.20;;
10509;SDS011;5303;53.266;10.410;2023-10-19T05:09:37;18.50;;;13.30;;
10509;SDS011;5303;53.266;10.410;2023-10-19T05:12:04;19.23;;;13.70;;
10509;SDS011;5303;53.266;10.410;2023-10-19T05:14:34;19.80;;;13.40;;
10509;SDS011;5303;53.266;10.410;2023-10-19T05:17:00;21.27;;;13.23;;
10509;SDS011;5303;53.266;10.410;2023-10-19T05:19:29;17.43;;;12.03;;
10509;SDS011;5303;53.266;10.410;2023-10-19T05:21:59;17.97;;;12.97;;
10509;SDS011;5303;53.266;10.410;2023-10-19T05:24:25;18.83;;;13.57;;
10509;SDS011;5303;53.266;10.410;2023-10-19T05:26:52;17.47;;;12.60;;
10509;SDS011;5303;53.266;10.410;2023-10-19T05:29:18;16.70;;;12.67;;
10509;SDS011;5303;53.266;10.410;2023-10-19T05:31:44;18.50;;;13.30;;
10509;SDS011;5303;53.266;10.410;2023-10-19T05:34:09;19.87;;;13.20;;
10509;SDS011;5303;53.266;10.410;2023-10-19T05:36:34;20.33;;;13.57;;
10509;SDS011;5303;53.266;10.410;2023-10-19T05:39:00;18.53;;;13.13;;
10509;SDS011;5303;53.266;10.410;2023-10-19T05:41:26;17.90;;;13.30;;
10509;SDS011;5303;53.266;10.410;2023-10-19T05:43:51;17.27;;;13.07;;
10509;SDS011;5303;53.266;10.410;2023-10-19T05:46:18;18.90;;;12.90;;
10509;SDS011;5303;53.266;10.410;2023-10-19T05:48:46;18.67;;;13.53;;
10509;SDS011;5303;53.266;10.410;2023-10-19T05:51:12;17.30;;;12.60;;
10509;SDS011;5303;53.266;10.410;2023-10-19T05:53:39;19.97;;;13.13;;
10509;SDS011;5303;53.266;10.410;2023-10-19T05:56:04;17.80;;;13.17;;
10509;SDS011;5303;53.266;10.410;2023-10-19T05:58:31;19.27;;;12.57;;
10509;SDS011;5303;53.266;10.410;2023-10-19T06:01:00;16.50;;;12.73;;
10509;SDS011;5303;53.266;10.410;2023-10-19T06:03:25;19.63;;;13.20;;
10509;SDS011;5303;53.266;10.410;2023-10-19T06:05:50;20.53;;;12.37;;
10509;SDS011;5303;53.266;10.410;2023-10-19T06:08:16;18.17;;;13.13;;
10509;SDS011;5303;53.266;10.410;2023-10-19T06:10:41;17.53;;;12.70;;
10509;SDS011;5303;53.266;10.410;2023-10-19T06:13:07;18.33;;;13.40;;
10509;SDS011;5303;53.266;10.410;2023-10-19T06:15:35;20.73;;;13.07;;
10509;SDS011;5303;53.266;10.410;2023-10-19T06:18:00;17.43;;;12.50;;
10509;SDS011;5303;53.266;10.410;2023-10-19T06:20:26;18.80;;;13.43;;
10509;SDS011;5303;53.266;10.410;2023-10-19T06:22:52;19.23;;;12.73;;
10509;SDS011;5303;53.266;10.410;2023-10-19T06:25:21;18.10;;;12.93;;
10509;SDS011;5303;53.266;10.410;2023-10-19T06:27:50;18.40;;;12.53;;
10509;SDS011;5303;53.266;10.410;2023-10-19T06:30:17;18.40;;;13.43;;
10509;SDS011;5303;53.266;10.410;2023-10-19T06:32:46;18.37;;;12.33;;
10509;SDS011;5303;53.266;10.410;2023-10-19T06:35:28;17.87;;;13.37;;
10509;SDS011;5303;53.266;10.410;2023-10-19T06:37:57;22.80;;;13.47;;
10509;SDS011;5303;53.266;10.410;2023-10-19T06:40:24;17.67;;;13.30;;
10509;SDS011;5303;53.266;10.410;2023-10-19T06:42:51;17.83;;;12.83;;
10509;SDS011;5303;53.266;10.410;2023-10-19T06:45:20;19.10;;;12.63;;
10509;SDS011;5303;53.266;10.410;2023-10-19T06:47:46;17.73;;;12.50;;
10509;SDS011;5303;53.266;10.410;2023-10-19T06:50:13;18.50;;;12.53;;
10509;SDS011;5303;53.266;10.410;2023-10-19T06:52:43;19.63;;;13.90;;
10509;SDS011;5303;53.266;10.410;2023-10-19T06:55:10;18.27;;;13.50;;
10509;SDS011;5303;53.266;10.410;2023-10-19T06:57:41;19.70;;;13.20;;
10509;SDS011;5303;53.266;10.410;2023-10-19T07:00:14;18.83;;;13.13;;
10509;SDS011;5303;53.266;10.410;2023-10-19T07:02:50;15.13;;;12.03;;
10509;SDS011;5303;53.266;10.410;2023-10-19T07:05:16;19.83;;;13.07;;
10509;SDS011;5303;53.266;10.410;2023-10-19T07:07:54;18.13;;;12.53;;
10509;SDS011;5303;53.266;10.410;2023-10-19T07:10:21;20.17;;;12.97;;
10509;SDS011;5303;53.266;10.410;2023-10-19T07:12:48;21.10;;;13.97;;
10509;SDS011;5303;53.266;10.410;2023-10-19T07:15:16;18.93;;;13.50;;
10509;SDS011;5303;53.266;10.410;2023-10-19T07:17:45;21.70;;;14.10;;
10509;SDS011;5303;53.266;10.410;2023-10-19T07:20:12;17.47;;;13.00;;
10509;SDS011;5303;53.266;10.410;2023-10-19T07:23:07;20.27;;;13.43;;
10509;SDS011;5303;53.266;10.410;2023-10-19T07:25:47;20.00;;;13.57;;
10509;SDS011;5303;53.266;10.410;2023-10-19T07:28:17;21.63;;;14.13;;
10509;SDS011;5303;53.266;10.410;2023-10-19T07:30:44;21.47;;;14.70;;
10509;SDS011;5303;53.266;10.410;2023-10-19T07:33:11;18.50;;;12.73;;
10509;SDS011;5303;53.266;10.410;2023-10-19T07:35:42;20.33;;;13.73;;
10509;SDS011;5303;53.266;10.410;2023-10-19T07:38:08;19.13;;;13.87;;
10509;SDS011;5303;53.266;10.410;2023-10-19T07:40:34;22.50;;;14.13;;
10509;SDS011;5303;53.266;10.410;2023-10-19T07:43:00;19.50;;;13.67;;
10509;SDS011;5303;53.266;10.410;2023-10-19T07:45:26;18.77;;;14.20;;
10509;SDS011;5303;53.266;10.410;2023-10-19T07:47:51;18.17;;;13.40;;
10509;SDS011;5303;53.266;10.410;2023-10-19T07:50:17;18.70;;;13.47;;
10509;SDS011;5303;53.266;10.410;2023-10-19T07:52:42;23.03;;;14.10;;
10509;SDS011;5303;53.266;10.410;2023-10-19T07:55:09;20.00;;;14.27;;
10509;SDS011;5303;53.266;10.410;2023-10-19T07:57:34;19.20;;;14.13;;
10509;SDS011;5303;53.266;10.410;2023-10-19T08:00:00;18.90;;;13.93;;
10509;SDS011;5303;53.266;10.410;2023-10-19T08:02:26;17.93;;;13.30;;
10509;SDS011;5303;53.266;10.410;2023-10-19T08:04:51;23.07;;;14.47;;
10509;SDS011;5303;53.266;10.410;2023-10-19T08:07:17;20.03;;;13.87;;
10509;SDS011;5303;53.266;10.410;2023-10-19T08:09:43;22.50;;;14.87;;
10509;SDS011;5303;53.266;10.410;2023-10-19T08:12:09;20.07;;;14.60;;
10509;SDS011;5303;53.266;10.410;2023-10-19T08:14:34;21.43;;;14.73;;
10509;SDS011;5303;53.266;10.410;2023-10-19T08:16:59;19.87;;;14.00;;
10509;SDS011;5303;53.266;10.410;2023-10-19T08:19:26;21.37;;;13.97;;
10509;SDS011;5303;53.266;10.410;2023-10-19T08:21:52;20.97;;;14.97;;
10509;SDS011;5303;53.266;10.410;2023-10-19T08:24:18;21.80;;;14.50;;
10509;SDS011;5303;53.266;10.410;2023-10-19T08:26:45;20.83;;;14.27;;
10509;SDS011;5303;53.266;10.410;2023-10-19T08:29:11;20.07;;;13.93;;
10509;SDS011;5303;53.266;10.410;2023-10-19T08:31:42;20.67;;;14.70;;
10509;SDS011;5303;53.266;10.410;2023-10-19T08:34:10;22.53;;;14.33;;
10509;SDS011;5303;53.266;10.410;2023-10-19T08:36:36;21.20;;;14.83;;
10509;SDS011;5303;53.266;10.410;2023-10-19T08:39:04;22.00;;;14.93;;
10509;SDS011;5303;53.266;10.410;2023-10-19T08:41:31;19.47;;;14.03;;
10509;SDS011;5303;53.266;10.410;2023-10-19T08:43:59;23.07;;;14.87;;
10509;SDS011;5303;53.266;10.410;2023-10-19T08:46:24;20.70;;;15.50;;
10509;SDS011;5303;53.266;10.410;2023-10-19T08:48:50;23.33;;;14.60;;
10509;SDS011;5303;53.266;10.410;2023-10-19T08:51:18;19.47;;;14.30;;
10509;SDS011;5303;53.266;10.410;2023-10-19T08:53:44;18.60;;;15.10;;
10509;SDS011;5303;53.266;10.410;2023-10-19T08:56:11;20.30;;;15.60;;
10509;SDS011;5303;53.266;10.410;2023-10-19T08:58:37;20.30;;;15.37;;
10509;SDS011;5303;53.266;10.410;2023-10-19T09:01:02;21.00;;;15.23;;
10509;SDS011;5303;53.266;10.410;2023-10-19T09:03:35;20.17;;;15.00;;
10509;SDS011;5303;53.266;10.410;2023-10-19T09:06:03;21.03;;;15.60;;
10509;SDS011;5303;53.266;10.410;2023-10-19T09:08:30;22.07;;;15.37;;
10509;SDS011;5303;53.266;10.410;2023-10-19T09:11:05;19.73;;;14.67;;
10509;SDS011;5303;53.266;10.410;2023-10-19T09:13:45;22.20;;;15.87;;
10509;SDS011;5303;53.266;10.410;2023-10-19T09:16:19;21.00;;;15.63;;
10509;SDS011;5303;53.266;10.410;2023-10-19T09:18:46;25.90;;;15.97;;
10509;SDS011;5303;53.266;10.410;2023-10-19T09:21:15;23.20;;;15.97;;
10509;SDS011;5303;53.266;10.410;2023-10-19T09:23:51;19.13;;;14.43;;
10509;SDS011;5303;53.266;10.410;2023-10-19T09:26:17;23.37;;;15.70;;
10509;SDS011;5303;53.266;10.410;2023-10-19T09:28:46;21.70;;;16.07;;
10509;SDS011;5303;53.266;10.410;2023-10-19T09:31:17;20.90;;;15.50;;
10509;SDS011;5303;53.266;10.410;2023-10-19T09:33:44;21.77;;;15.93;;
10509;SDS011;5303;53.266;10.410;2023-10-19T09:36:10;22.90;;;17.00;;
10509;SDS011;5303;53.266;10.410;2023-10-19T09:41:18;24.20;;;16.07;;
10509;SDS011;5303;53.266;10.410;2023-10-19T09:43:46;21.60;;;16.80;;
10509;SDS011;5303;53.266;10.410;2023-10-19T09:46:19;24.40;;;16.87;;
10509;SDS011;5303;53.266;10.410;2023-10-19T09:48:51;21.20;;;15.70;;
10509;SDS011;5303;53.266;10.410;2023-10-19T09:51:17;21.37;;;16.03;;
10509;SDS011;5303;53.266;10.410;2023-10-19T09:53:45;23.37;;;17.40;;
10509;SDS011;5303;53.266;10.410;2023-10-19T09:56:19;26.10;;;16.60;;
10509;SDS011;5303;53.266;10.410;2023-10-19T09:58:48;24.37;;;16.43;;
10509;SDS011;5303;53.266;10.410;2023-10-19T10:01:18;21.13;;;16.20;;
10509;SDS011;5303;53.266;10.410;2023-10-19T10:06:29;23.60;;;17.40;;
10509;SDS011;5303;53.266;10.410;2023-10-19T10:08:54;21.70;;;16.53;;
10509;SDS011;5303;53.266;10.410;2023-10-19T10:11:23;21.93;;;17.40;;
10509;SDS011;5303;53.266;10.410;2023-10-19T10:13:51;22.70;;;17.40;;
10509;SDS011;5303;53.266;10.410;2023-10-19T10:16:18;23.87;;;17.17;;
10509;SDS011;5303;53.266;10.410;2023-10-19T10:18:48;25.87;;;18.43;;
10509;SDS011;5303;53.266;10.410;2023-10-19T10:21:22;27.33;;;18.87;;
10509;SDS011;5303;53.266;10.410;2023-10-19T10:23:52;24.30;;;18.40;;
10509;SDS011;5303;53.266;10.410;2023-10-19T10:26:25;24.73;;;18.50;;
10509;SDS011;5303;53.266;10.410;2023-10-19T10:29:07;26.02;;;21.60;;
10509;SDS011;5303;53.266;10.410;2023-10-19T10:31:45;24.63;;;18.63;;
10509;SDS011;5303;53.266;10.410;2023-10-19T10:37:02;24.67;;;18.40;;
10509;SDS011;5303;53.266;10.410;2023-10-19T10:39:36;28.05;;;21.30;;
10509;SDS011;5303;53.266;10.410;2023-10-19T10:42:03;27.20;;;19.40;;
10509;SDS011;5303;53.266;10.410;2023-10-19T10:47:18;26.33;;;19.77;;
10509;SDS011;5303;53.266;10.410;2023-10-19T10:49:51;27.37;;;19.20;;
10509;SDS011;5303;53.266;10.410;2023-10-19T10:52:26;25.17;;;18.73;;
10509;SDS011;5303;53.266;10.410;2023-10-19T10:54:57;24.30;;;18.37;;
10509;SDS011;5303;53.266;10.410;2023-10-19T10:57:43;27.00;;;18.87;;
10509;SDS011;5303;53.266;10.410;2023-10-19T11:00:11;24.50;;;18.83;;
10509;SDS011;5303;53.266;10.410;2023-10-19T11:02:44;25.70;;;19.07;;
10509;SDS011;5303;53.266;10.410;2023-10-19T11:05:24;24.33;;;18.83;;
10509;SDS011;5303;53.266;10.410;2023-10-19T11:08:05;28.20;;;19.60;;
10509;SDS011;5303;53.266;10.410;2023-10-19T11:10:32;26.40;;;19.00;;
10509;SDS011;5303;53.266;10.410;2023-10-19T11:13:02;25.67;;;18.73;;
10509;SDS011;5303;53.266;10.410;2023-10-19T11:15:28;29.37;;;21.10;;
10509;SDS011;5303;53.266;10.410;2023-10-19T11:17:53;24.50;;;19.50;;
10509;SDS011;5303;53.266;10.410;2023-10-19T11:20:22;27.67;;;19.80;;
10509;SDS011;5303;53.266;10.410;2023-10-19T11:22:50;27.63;;;20.77;;
10509;SDS011;5303;53.266;10.410;2023-10-19T11:25:22;26.67;;;20.60;;
10509;SDS011;5303;53.266;10.410;2023-10-19T11:27:49;26.30;;;20.93;;
10509;SDS011;5303;53.266;10.410;2023-10-19T11:30:22;28.43;;;20.50;;
10509;SDS011;5303;53.266;10.410;2023-10-19T11:32:52;27.10;;;19.93;;
10509;SDS011;5303;53.266;10.410;2023-10-19T11:35:21;28.27;;;21.20;;
10509;SDS011;5303;53.266;10.410;2023-10-19T11:37:48;29.10;;;21.90;;
10509;SDS011;5303;53.266;10.410;2023-10-19T11:40:14;27.00;;;21.17;;
10509;SDS011;5303;53.266;10.410;2023-10-19T11:42:40;29.57;;;21.27;;
10509;SDS011;5303;53.266;10.410;2023-10-19T11:45:05;29.20;;;20.90;;
10509;SDS011;5303;53.266;10.410;2023-10-19T11:47:31;27.70;;;20.40;;
10509;SDS011;5303;53.266;10.410;2023-10-19T11:49:56;27.03;;;20.70;;
10509;SDS011;5303;53.266;10.410;2023-10-19T11:52:22;28.67;;;21.63;;
10509;SDS011;5303;53.266;10.410;2023-10-19T11:54:48;29.67;;;20.77;;
10509;SDS011;5303;53.266;10.410;2023-10-19T11:57:13;27.70;;;20.23;;
10509;SDS011;5303;53.266;10.410;2023-10-19T11:59:38;29.03;;;20.07;;
10509;SDS011;5303;53.266;10.410;2023-10-19T12:02:05;26.03;;;19.87;;
10509;SDS011;5303;53.266;10.410;2023-10-19T12:04:31;26.83;;;19.40;;
10509;SDS011;5303;53.266;10.410;2023-10-19T12:06:58;26.17;;;19.63;;
10509;SDS011;5303;53.266;10.410;2023-10-19T12:09:25;27.57;;;20.00;;
10509;SDS011;5303;53.266;10.410;2023-10-19T12:11:51;27.67;;;19.73;;
10509;SDS011;5303;53.266;10.410;2023-10-19T12:14:20;28.23;;;20.10;;
10509;SDS011;5303;53.266;10.410;2023-10-19T12:16:46;27.87;;;20.10;;
10509;SDS011;5303;53.266;10.410;2023-10-19T12:19:12;30.73;;;20.63;;
10509;SDS011;5303;53.266;10.410;2023-10-19T12:21:39;29.30;;;20.90;;
10509;SDS011;5303;53.266;10.410;2023-10-19T12:24:06;27.40;;;20.10;;
10509;SDS011;5303;53.266;10.410;2023-10-19T12:26:32;24.37;;;19.50;;
10509;SDS011;5303;53.266;10.410;2023-10-19T12:28:58;28.93;;;19.93;;
10509;SDS011;5303;53.266;10.410;2023-10-19T12:31:23;25.10;;;19.00;;
10509;SDS011;5303;53.266;10.410;2023-10-19T12:33:49;25.83;;;18.97;;
10509;SDS011;5303;53.266;10.410;2023-10-19T12:36:14;25.20;;;19.27;;
10509;SDS011;5303;53.266;10.410;2023-10-19T12:38:59;27.90;;;19.03;;
10509;SDS011;5303;53.266;10.410;2023-10-19T12:41:25;26.03;;;19.80;;
10509;SDS011;5303;53.266;10.410;2023-10-19T12:43:51;27.90;;;19.80;;
10509;SDS011;5303;53.266;10.410;2023-10-19T12:46:17;25.47;;;18.67;;
10509;SDS011;5303;53.266;10.410;2023-10-19T12:48:44;25.30;;;19.43;;
10509;SDS011;5303;53.266;10.410;2023-10-19T12:51:11;26.60;;;19.33;;
10509;SDS011;5303;53.266;10.410;2023-10-19T12:53:38;27.20;;;19.80;;
10509;SDS011;5303;53.266;10.410;2023-10-19T12:56:04;29.73;;;20.87;;
10509;SDS011;5303;53.266;10.410;2023-10-19T12:58:31;29.43;;;20.30;;
10509;SDS011;5303;53.266;10.410;2023-10-19T13:00:57;28.73;;;20.27;;
10509;SDS011;5303;53.266;10.410;2023-10-19T13:03:23;28.87;;;19.43;;
10509;SDS011;5303;53.266;10.410;2023-10-19T13:05:52;26.50;;;20.33;;
10509;SDS011;5303;53.266;10.410;2023-10-19T13:08:18;27.57;;;20.27;;
10509;SDS011;5303;53.266;10.410;2023-10-19T13:10:44;27.30;;;20.73;;
10509;SDS011;5303;53.266;10.410;2023-10-19T13:13:14;29.97;;;21.50;;
10509;SDS011;5303;53.266;10.410;2023-10-19T13:15:42;27.80;;;21.07;;
10509;SDS011;5303;53.266;10.410;2023-10-19T13:18:10;27.50;;;20.27;;
10509;SDS011;5303;53.266;10.410;2023-10-19T13:20:38;29.40;;;20.50;;
10509;SDS011;5303;53.266;10.410;2023-10-19T13:23:06;33.33;;;21.40;;
10509;SDS011;5303;53.266;10.410;2023-10-19T13:25:36;31.53;;;21.13;;
10509;SDS011;5303;53.266;10.410;2023-10-19T13:28:20;30.30;;;22.77;;
10509;SDS011;5303;53.266;10.410;2023-10-19T13:30:51;33.57;;;21.63;;
10509;SDS011;5303;53.266;10.410;2023-10-19T13:33:21;31.43;;;21.50;;
10509;SDS011;5303;53.266;10.410;2023-10-19T13:35:47;30.23;;;21.23;;
10509;SDS011;5303;53.266;10.410;2023-10-19T13:38:13;29.97;;;21.10;;
10509;SDS011;5303;53.266;10.410;2023-10-19T13:40:40;31.30;;;22.53;;
10509;SDS011;5303;53.266;10.410;2023-10-19T13:43:07;31.97;;;22.10;;
10509;SDS011;5303;53.266;10.410;2023-10-19T13:45:33;31.47;;;22.20;;
10509;SDS011;5303;53.266;10.410;2023-10-19T13:48:03;31.03;;;22.40;;
10509;SDS011;5303;53.266;10.410;2023-10-19T13:50:29;29.70;;;23.20;;
10509;SDS011;5303;53.266;10.410;2023-10-19T13:52:55;31.37;;;22.83;;
10509;SDS011;5303;53.266;10.410;2023-10-19T13:55:29;34.17;;;24.87;;
10509;SDS011;5303;53.266;10.410;2023-10-19T13:57:55;31.77;;;22.07;;
10509;SDS011;5303;53.266;10.410;2023-10-19T14:00:21;30.97;;;21.27;;
10509;SDS011;5303;53.266;10.410;2023-10-19T14:03:00;29.90;;;21.87;;
10509;SDS011;5303;53.266;10.410;2023-10-19T14:05:26;27.27;;;21.03;;
10509;SDS011;5303;53.266;10.410;2023-10-19T14:07:53;28.37;;;20.70;;
10509;SDS011;5303;53.266;10.410;2023-10-19T14:10:19;27.47;;;20.50;;
10509;SDS011;5303;53.266;10.410;2023-10-19T14:12:45;25.87;;;19.10;;
10509;SDS011;5303;53.266;10.410;2023-10-19T14:15:20;25.33;;;18.53;;
10509;SDS011;5303;53.266;10.410;2023-10-19T14:17:46;30.33;;;23.60;;
10509;SDS011;5303;53.266;10.410;2023-10-19T14:20:13;26.90;;;19.67;;
10509;SDS011;5303;53.266;10.410;2023-10-19T14:22:40;25.07;;;20.33;;
10509;SDS011;5303;53.266;10.410;2023-10-19T14:25:07;24.67;;;19.70;;
10509;SDS011;5303;53.266;10.410;2023-10-19T14:27:37;23.80;;;19.03;;
10509;SDS011;5303;53.266;10.410;2023-10-19T14:30:02;23.60;;;18.47;;
10509;SDS011;5303;53.266;10.410;2023-10-19T14:32:28;22.37;;;18.37;;
10509;SDS011;5303;53.266;10.410;2023-10-19T14:34:53;27.90;;;19.07;;
10509;SDS011;5303;53.266;10.410;2023-10-19T14:37:19;26.87;;;18.80;;
10509;SDS011;5303;53.266;10.410;2023-10-19T14:39:44;26.27;;;18.87;;
10509;SDS011;5303;53.266;10.410;2023-10-19T14:42:10;23.23;;;18.20;;
10509;SDS011;5303;53.266;10.410;2023-10-19T14:44:35;26.67;;;19.37;;
10509;SDS011;5303;53.266;10.410;2023-10-19T14:47:00;24.10;;;18.30;;
10509;SDS011;5303;53.266;10.410;2023-10-19T14:49:27;24.60;;;18.30;;